sensor_id;sensor_type;location;lat;lon;timestamp;P1;durP1;ratioP1;P2;durP2;ratioP2
22223;SDS011;11281;52.194;21.006;2023-02-02T00:01:47;12.15;;;4.78;;
22223;SDS011;11281;52.194;21.006;2023-02-02T00:06:11;15.77;;;4.78;;
22223;SDS011;11281;52.194;21.006;2023-02-02T00:10:32;9.77;;;5.53;;
22223;SDS011;11281;52.194;21.006;2023-02-02T00:14:54;14.38;;;7.82;;
22223;SDS011;11281;52.194;21.006;2023-02-02T00:19:27;15.80;;;6.43;;
22223;SDS011;11281;52.194;21.006;2023-02-02T00:23:51;15.18;;;8.10;;
22223;SDS011;11281;52.194;21.006;2023-02-02T00:28:13;10.23;;;6.63;;
22223;SDS011;11281;52.194;21.006;2023-02-02T00:32:35;12.10;;;6.78;;
22223;SDS011;11281;52.194;21.006;2023-02-02T00:36:55;8.85;;;5.53;;
22223;SDS011;11281;52.194;21.006;2023-02-02T00:41:16;10.07;;;5.95;;
22223;SDS011;11281;52.194;21.006;2023-02-02T00:45:38;12.60;;;5.68;;
22223;SDS011;11281;52.194;21.006;2023-02-02T00:50:00;7.47;;;4.47;;
22223;SDS011;11281;52.194;21.006;2023-02-02T00:54:22;8.38;;;4.63;;
22223;SDS011;11281;52.194;21.006;2023-02-02T00:58:43;6.82;;;4.72;;
22223;SDS011;11281;52.194;21.006;2023-02-02T01:03:05;8.43;;;5.50;;
22223;SDS011;11281;52.194;21.006;2023-02-02T01:07:27;8.35;;;5.20;;
22223;SDS011;11281;52.194;21.006;2023-02-02T01:11:48;7.38;;;5.20;;
22223;SDS011;11281;52.194;21.006;2023-02-02T01:16:10;10.60;;;6.00;;
22223;SDS011;11281;52.194;21.006;2023-02-02T01:20:32;9.65;;;4.88;;
22223;SDS011;11281;52.194;21.006;2023-02-02T01:24:54;8.48;;;4.53;;
22223;SDS011;11281;52.194;21.006;2023-02-02T01:29:16;5.95;;;4.43;;
22223;SDS011;11281;52.194;21.006;2023-02-02T01:33:38;5.80;;;3.95;;
22223;SDS011;11281;52.194;21.006;2023-02-02T01:38:00;6.28;;;4.35;;
22223;SDS011;11281;52.194;21.006;2023-02-02T01:42:22;7.47;;;4.65;;
22223;SDS011;11281;52.194;21.006;2023-02-02T01:46:44;6.05;;;3.97;;
22223;SDS011;11281;52.194;21.006;2023-02-02T01:51:06;5.15;;;3.53;;
22223;SDS011;11281;52.194;21.006;2023-02-02T01:55:38;6.38;;;4.25;;
22223;SDS011;11281;52.194;21.006;2023-02-02T02:00:03;5.78;;;3.65;;
22223;SDS011;11281;52.194;21.006;2023-02-02T02:04:28;6.95;;;3.85;;
22223;SDS011;11281;52.194;21.006;2023-02-02T02:08:54;4.75;;;3.72;;
22223;SDS011;11281;52.194;21.006;2023-02-02T02:13:21;3.75;;;3.15;;
22223;SDS011;11281;52.194;21.006;2023-02-02T02:37:32;3.53;;;2.85;;
22223;SDS011;11281;52.194;21.006;2023-02-02T02:42:07;5.25;;;2.90;;
22223;SDS011;11281;52.194;21.006;2023-02-02T02:46:34;4.10;;;3.70;;
22223;SDS011;11281;52.194;21.006;2023-02-02T02:51:05;4.65;;;3.53;;
22223;SDS011;11281;52.194;21.006;2023-02-02T02:55:29;5.60;;;4.00;;
22223;SDS011;11281;52.194;21.006;2023-02-02T03:00:16;5.55;;;3.63;;
22223;SDS011;11281;52.194;21.006;2023-02-02T03:09:40;7.15;;;3.83;;
22223;SDS011;11281;52.194;21.006;2023-02-02T03:14:04;4.88;;;3.85;;
22223;SDS011;11281;52.194;21.006;2023-02-02T03:18:30;5.25;;;4.25;;
22223;SDS011;11281;52.194;21.006;2023-02-02T03:22:53;5.22;;;4.03;;
22223;SDS011;11281;52.194;21.006;2023-02-02T03:27:14;6.72;;;4.22;;
22223;SDS011;11281;52.194;21.006;2023-02-02T03:31:36;11.38;;;4.30;;
22223;SDS011;11281;52.194;21.006;2023-02-02T03:35:58;6.95;;;4.20;;
22223;SDS011;11281;52.194;21.006;2023-02-02T03:40:20;6.22;;;4.20;;
22223;SDS011;11281;52.194;21.006;2023-02-02T03:44:41;6.32;;;4.25;;
22223;SDS011;11281;52.194;21.006;2023-02-02T03:49:03;5.78;;;3.80;;
22223;SDS011;11281;52.194;21.006;2023-02-02T03:53:25;10.50;;;3.70;;
22223;SDS011;11281;52.194;21.006;2023-02-02T03:57:46;6.03;;;3.20;;
22223;SDS011;11281;52.194;21.006;2023-02-02T04:02:08;9.18;;;4.05;;
22223;SDS011;11281;52.194;21.006;2023-02-02T04:06:30;10.38;;;3.72;;
22223;SDS011;11281;52.194;21.006;2023-02-02T04:10:52;10.10;;;4.20;;
22223;SDS011;11281;52.194;21.006;2023-02-02T04:15:13;4.53;;;3.70;;
22223;SDS011;11281;52.194;21.006;2023-02-02T04:19:35;8.20;;;3.60;;
22223;SDS011;11281;52.194;21.006;2023-02-02T04:23:57;8.65;;;3.97;;
22223;SDS011;11281;52.194;21.006;2023-02-02T04:28:19;11.73;;;3.55;;
22223;SDS011;11281;52.194;21.006;2023-02-02T04:32:42;9.50;;;3.53;;
22223;SDS011;11281;52.194;21.006;2023-02-02T04:37:04;4.28;;;3.10;;
22223;SDS011;11281;52.194;21.006;2023-02-02T04:41:26;6.38;;;3.58;;
22223;SDS011;11281;52.194;21.006;2023-02-02T04:45:53;5.40;;;3.25;;
22223;SDS011;11281;52.194;21.006;2023-02-02T04:54:37;4.50;;;2.78;;
22223;SDS011;11281;52.194;21.006;2023-02-02T04:58:59;8.50;;;3.65;;
22223;SDS011;11281;52.194;21.006;2023-02-02T05:03:21;12.05;;;4.00;;
22223;SDS011;11281;52.194;21.006;2023-02-02T05:07:42;5.38;;;3.38;;
22223;SDS011;11281;52.194;21.006;2023-02-02T05:12:04;9.57;;;3.40;;
22223;SDS011;11281;52.194;21.006;2023-02-02T05:16:26;6.50;;;2.65;;
22223;SDS011;11281;52.194;21.006;2023-02-02T05:20:47;10.98;;;3.88;;
22223;SDS011;11281;52.194;21.006;2023-02-02T05:25:09;6.18;;;3.08;;
22223;SDS011;11281;52.194;21.006;2023-02-02T05:29:31;8.30;;;3.10;;
22223;SDS011;11281;52.194;21.006;2023-02-02T05:33:53;6.32;;;2.42;;
22223;SDS011;11281;52.194;21.006;2023-02-02T05:38:14;7.35;;;3.60;;
22223;SDS011;11281;52.194;21.006;2023-02-02T05:42:36;18.25;;;6.57;;
22223;SDS011;11281;52.194;21.006;2023-02-02T05:46:58;7.18;;;3.42;;
22223;SDS011;11281;52.194;21.006;2023-02-02T05:51:21;12.10;;;2.90;;
22223;SDS011;11281;52.194;21.006;2023-02-02T05:55:46;6.65;;;3.28;;
22223;SDS011;11281;52.194;21.006;2023-02-02T06:00:08;7.32;;;2.80;;
22223;SDS011;11281;52.194;21.006;2023-02-02T06:04:31;13.13;;;3.65;;
22223;SDS011;11281;52.194;21.006;2023-02-02T06:08:52;7.18;;;2.55;;
22223;SDS011;11281;52.194;21.006;2023-02-02T06:13:14;9.93;;;3.38;;
22223;SDS011;11281;52.194;21.006;2023-02-02T06:17:36;8.00;;;3.30;;
22223;SDS011;11281;52.194;21.006;2023-02-02T06:21:58;7.65;;;3.35;;
22223;SDS011;11281;52.194;21.006;2023-02-02T06:26:19;5.00;;;2.63;;
22223;SDS011;11281;52.194;21.006;2023-02-02T06:30:41;5.63;;;2.55;;
22223;SDS011;11281;52.194;21.006;2023-02-02T06:35:03;5.97;;;2.63;;
22223;SDS011;11281;52.194;21.006;2023-02-02T06:39:26;6.88;;;2.78;;
22223;SDS011;11281;52.194;21.006;2023-02-02T06:43:48;7.68;;;2.88;;
22223;SDS011;11281;52.194;21.006;2023-02-02T06:48:10;8.23;;;2.58;;
22223;SDS011;11281;52.194;21.006;2023-02-02T06:52:32;15.88;;;3.47;;
22223;SDS011;11281;52.194;21.006;2023-02-02T06:56:54;5.63;;;2.78;;
22223;SDS011;11281;52.194;21.006;2023-02-02T07:01:16;5.65;;;3.00;;
22223;SDS011;11281;52.194;21.006;2023-02-02T07:05:37;11.35;;;3.72;;
22223;SDS011;11281;52.194;21.006;2023-02-02T07:09:59;7.82;;;3.47;;
22223;SDS011;11281;52.194;21.006;2023-02-02T07:14:21;15.07;;;3.17;;
22223;SDS011;11281;52.194;21.006;2023-02-02T07:18:43;10.50;;;3.13;;
22223;SDS011;11281;52.194;21.006;2023-02-02T07:23:07;7.50;;;4.05;;
22223;SDS011;11281;52.194;21.006;2023-02-02T07:27:29;6.75;;;3.60;;
22223;SDS011;11281;52.194;21.006;2023-02-02T07:31:50;7.13;;;3.65;;
22223;SDS011;11281;52.194;21.006;2023-02-02T07:36:13;6.75;;;3.40;;
22223;SDS011;11281;52.194;21.006;2023-02-02T07:40:37;7.15;;;3.78;;
22223;SDS011;11281;52.194;21.006;2023-02-02T07:44:58;6.07;;;3.63;;
22223;SDS011;11281;52.194;21.006;2023-02-02T07:49:21;4.15;;;3.38;;
22223;SDS011;11281;52.194;21.006;2023-02-02T07:53:46;6.13;;;3.75;;
22223;SDS011;11281;52.194;21.006;2023-02-02T08:02:32;5.57;;;2.88;;
22223;SDS011;11281;52.194;21.006;2023-02-02T08:06:54;9.55;;;3.00;;
22223;SDS011;11281;52.194;21.006;2023-02-02T08:11:17;5.28;;;3.00;;
22223;SDS011;11281;52.194;21.006;2023-02-02T08:15:41;8.05;;;3.25;;
22223;SDS011;11281;52.194;21.006;2023-02-02T08:20:03;4.47;;;3.20;;
22223;SDS011;11281;52.194;21.006;2023-02-02T08:24:25;4.10;;;3.08;;
22223;SDS011;11281;52.194;21.006;2023-02-02T08:28:50;9.88;;;3.80;;
22223;SDS011;11281;52.194;21.006;2023-02-02T08:33:26;6.13;;;3.58;;
22223;SDS011;11281;52.194;21.006;2023-02-02T08:37:49;6.70;;;3.90;;
22223;SDS011;11281;52.194;21.006;2023-02-02T08:42:10;8.70;;;4.15;;
22223;SDS011;11281;52.194;21.006;2023-02-02T08:46:32;10.02;;;4.22;;
22223;SDS011;11281;52.194;21.006;2023-02-02T08:50:54;7.68;;;3.88;;
22223;SDS011;11281;52.194;21.006;2023-02-02T08:55:18;7.40;;;3.70;;
22223;SDS011;11281;52.194;21.006;2023-02-02T08:59:40;5.85;;;3.80;;
22223;SDS011;11281;52.194;21.006;2023-02-02T09:04:02;3.35;;;3.05;;
22223;SDS011;11281;52.194;21.006;2023-02-02T09:08:27;6.80;;;3.53;;
22223;SDS011;11281;52.194;21.006;2023-02-02T09:12:49;6.15;;;3.22;;
22223;SDS011;11281;52.194;21.006;2023-02-02T09:17:10;5.50;;;3.55;;
22223;SDS011;11281;52.194;21.006;2023-02-02T09:21:32;6.88;;;2.83;;
22223;SDS011;11281;52.194;21.006;2023-02-02T09:25:56;4.05;;;3.08;;
22223;SDS011;11281;52.194;21.006;2023-02-02T09:30:18;8.10;;;3.78;;
22223;SDS011;11281;52.194;21.006;2023-02-02T09:34:40;9.85;;;4.47;;
22223;SDS011;11281;52.194;21.006;2023-02-02T09:39:02;5.43;;;3.67;;
22223;SDS011;11281;52.194;21.006;2023-02-02T09:48:33;3.15;;;2.85;;
22223;SDS011;11281;52.194;21.006;2023-02-02T09:53:21;2.88;;;2.65;;
22223;SDS011;11281;52.194;21.006;2023-02-02T10:02:39;24.35;;;11.82;;
22223;SDS011;11281;52.194;21.006;2023-02-02T10:07:11;11.65;;;7.72;;
22223;SDS011;11281;52.194;21.006;2023-02-02T10:11:44;11.73;;;6.65;;
22223;SDS011;11281;52.194;21.006;2023-02-02T10:16:46;16.30;;;6.38;;
22223;SDS011;11281;52.194;21.006;2023-02-02T10:30:46;7.63;;;4.63;;
22223;SDS011;11281;52.194;21.006;2023-02-02T10:35:55;4.20;;;3.80;;
22223;SDS011;11281;52.194;21.006;2023-02-02T10:40:30;5.32;;;3.90;;
22223;SDS011;11281;52.194;21.006;2023-02-02T10:45:13;11.60;;;6.68;;
22223;SDS011;11281;52.194;21.006;2023-02-02T10:49:39;6.10;;;4.15;;
22223;SDS011;11281;52.194;21.006;2023-02-02T10:54:01;4.53;;;3.28;;
22223;SDS011;11281;52.194;21.006;2023-02-02T10:58:36;7.93;;;4.18;;
22223;SDS011;11281;52.194;21.006;2023-02-02T11:03:41;5.63;;;4.22;;
22223;SDS011;11281;52.194;21.006;2023-02-02T11:13:05;4.90;;;3.58;;
22223;SDS011;11281;52.194;21.006;2023-02-02T11:17:30;6.20;;;4.00;;
22223;SDS011;11281;52.194;21.006;2023-02-02T11:21:53;7.18;;;4.75;;
22223;SDS011;11281;52.194;21.006;2023-02-02T11:26:17;8.82;;;4.85;;
22223;SDS011;11281;52.194;21.006;2023-02-02T11:30:39;8.63;;;5.05;;
22223;SDS011;11281;52.194;21.006;2023-02-02T11:39:45;10.00;;;5.95;;
22223;SDS011;11281;52.194;21.006;2023-02-02T11:44:09;8.25;;;5.95;;
22223;SDS011;11281;52.194;21.006;2023-02-02T11:48:48;10.43;;;6.40;;
22223;SDS011;11281;52.194;21.006;2023-02-02T12:03:07;10.38;;;5.80;;
22223;SDS011;11281;52.194;21.006;2023-02-02T12:07:45;14.68;;;7.95;;
22223;SDS011;11281;52.194;21.006;2023-02-02T12:26:34;11.55;;;6.38;;
22223;SDS011;11281;52.194;21.006;2023-02-02T12:31:02;9.25;;;5.20;;
22223;SDS011;11281;52.194;21.006;2023-02-02T12:40:59;6.45;;;5.45;;
22223;SDS011;11281;52.194;21.006;2023-02-02T12:45:44;5.82;;;3.70;;
22223;SDS011;11281;52.194;21.006;2023-02-02T12:50:58;6.72;;;4.03;;
22223;SDS011;11281;52.194;21.006;2023-02-02T12:55:50;4.15;;;3.13;;
22223;SDS011;11281;52.194;21.006;2023-02-02T13:00:34;6.50;;;3.00;;
22223;SDS011;11281;52.194;21.006;2023-02-02T13:10:38;3.95;;;2.53;;
22223;SDS011;11281;52.194;21.006;2023-02-02T13:15:06;4.85;;;3.35;;
22223;SDS011;11281;52.194;21.006;2023-02-02T13:19:39;6.68;;;3.95;;
22223;SDS011;11281;52.194;21.006;2023-02-02T13:24:05;9.20;;;4.57;;
22223;SDS011;11281;52.194;21.006;2023-02-02T13:33:22;9.05;;;4.35;;
22223;SDS011;11281;52.194;21.006;2023-02-02T13:37:54;3.35;;;3.05;;
22223;SDS011;11281;52.194;21.006;2023-02-02T13:42:37;6.82;;;3.92;;
22223;SDS011;11281;52.194;21.006;2023-02-02T13:47:21;5.05;;;3.30;;
22223;SDS011;11281;52.194;21.006;2023-02-02T14:02:00;15.13;;;6.20;;
22223;SDS011;11281;52.194;21.006;2023-02-02T14:06:24;11.80;;;4.72;;
22223;SDS011;11281;52.194;21.006;2023-02-02T14:15:12;3.92;;;2.42;;
22223;SDS011;11281;52.194;21.006;2023-02-02T14:23:56;7.38;;;3.33;;
22223;SDS011;11281;52.194;21.006;2023-02-02T14:28:48;3.50;;;1.90;;
22223;SDS011;11281;52.194;21.006;2023-02-02T14:42:50;2.97;;;2.25;;
22223;SDS011;11281;52.194;21.006;2023-02-02T14:52:19;3.30;;;2.08;;
22223;SDS011;11281;52.194;21.006;2023-02-02T15:06:37;5.15;;;2.00;;
22223;SDS011;11281;52.194;21.006;2023-02-02T15:11:03;2.97;;;1.90;;
22223;SDS011;11281;52.194;21.006;2023-02-02T15:15:47;1.65;;;1.58;;
22223;SDS011;11281;52.194;21.006;2023-02-02T15:24:58;4.20;;;3.25;;
22223;SDS011;11281;52.194;21.006;2023-02-02T15:34:03;4.75;;;2.63;;
22223;SDS011;11281;52.194;21.006;2023-02-02T15:38:34;4.72;;;3.05;;
22223;SDS011;11281;52.194;21.006;2023-02-02T15:43:03;2.50;;;2.20;;
22223;SDS011;11281;52.194;21.006;2023-02-02T15:47:30;4.97;;;2.30;;
22223;SDS011;11281;52.194;21.006;2023-02-02T15:51:55;5.80;;;3.00;;
22223;SDS011;11281;52.194;21.006;2023-02-02T16:00:44;5.80;;;2.92;;
22223;SDS011;11281;52.194;21.006;2023-02-02T16:05:22;5.93;;;2.97;;
22223;SDS011;11281;52.194;21.006;2023-02-02T16:10:03;5.53;;;2.50;;
22223;SDS011;11281;52.194;21.006;2023-02-02T16:14:27;5.95;;;3.35;;
22223;SDS011;11281;52.194;21.006;2023-02-02T16:23:35;4.32;;;2.03;;
22223;SDS011;11281;52.194;21.006;2023-02-02T16:27:58;3.58;;;2.40;;
22223;SDS011;11281;52.194;21.006;2023-02-02T16:37:05;3.85;;;2.55;;
22223;SDS011;11281;52.194;21.006;2023-02-02T16:41:48;4.95;;;2.45;;
22223;SDS011;11281;52.194;21.006;2023-02-02T16:50:34;4.90;;;2.85;;
22223;SDS011;11281;52.194;21.006;2023-02-02T16:54:56;5.57;;;2.60;;
22223;SDS011;11281;52.194;21.006;2023-02-02T16:59:24;5.72;;;2.72;;
22223;SDS011;11281;52.194;21.006;2023-02-02T17:03:55;4.65;;;2.78;;
22223;SDS011;11281;52.194;21.006;2023-02-02T17:08:27;3.05;;;2.20;;
22223;SDS011;11281;52.194;21.006;2023-02-02T17:12:59;3.90;;;2.60;;
22223;SDS011;11281;52.194;21.006;2023-02-02T17:17:22;6.70;;;2.42;;
22223;SDS011;11281;52.194;21.006;2023-02-02T17:21:44;9.27;;;3.78;;
22223;SDS011;11281;52.194;21.006;2023-02-02T17:26:09;10.73;;;3.83;;
22223;SDS011;11281;52.194;21.006;2023-02-02T17:30:32;10.00;;;4.05;;
22223;SDS011;11281;52.194;21.006;2023-02-02T17:34:54;4.47;;;3.25;;
22223;SDS011;11281;52.194;21.006;2023-02-02T17:39:16;3.47;;;3.17;;
22223;SDS011;11281;52.194;21.006;2023-02-02T17:43:38;5.32;;;4.15;;
22223;SDS011;11281;52.194;21.006;2023-02-02T17:48:02;4.55;;;3.20;;
22223;SDS011;11281;52.194;21.006;2023-02-02T17:52:25;5.13;;;3.67;;
22223;SDS011;11281;52.194;21.006;2023-02-02T17:56:46;7.50;;;2.65;;
22223;SDS011;11281;52.194;21.006;2023-02-02T18:01:09;4.22;;;2.35;;
22223;SDS011;11281;52.194;21.006;2023-02-02T18:05:32;4.20;;;3.03;;
22223;SDS011;11281;52.194;21.006;2023-02-02T18:09:53;9.77;;;4.15;;
22223;SDS011;11281;52.194;21.006;2023-02-02T18:14:15;10.88;;;6.22;;
22223;SDS011;11281;52.194;21.006;2023-02-02T18:18:37;8.55;;;3.92;;
22223;SDS011;11281;52.194;21.006;2023-02-02T18:22:59;7.10;;;4.43;;
22223;SDS011;11281;52.194;21.006;2023-02-02T18:27:21;4.60;;;3.00;;
22223;SDS011;11281;52.194;21.006;2023-02-02T18:31:43;8.30;;;4.75;;
22223;SDS011;11281;52.194;21.006;2023-02-02T18:36:05;5.85;;;4.18;;
22223;SDS011;11281;52.194;21.006;2023-02-02T18:40:33;11.93;;;3.75;;
22223;SDS011;11281;52.194;21.006;2023-02-02T18:44:55;5.07;;;4.05;;
22223;SDS011;11281;52.194;21.006;2023-02-02T18:49:17;3.85;;;3.38;;
22223;SDS011;11281;52.194;21.006;2023-02-02T18:53:39;4.15;;;3.63;;
22223;SDS011;11281;52.194;21.006;2023-02-02T18:58:00;6.03;;;4.05;;
22223;SDS011;11281;52.194;21.006;2023-02-02T19:02:22;4.32;;;3.38;;
22223;SDS011;11281;52.194;21.006;2023-02-02T19:06:45;4.05;;;2.55;;
22223;SDS011;11281;52.194;21.006;2023-02-02T19:11:34;7.18;;;3.53;;
22223;SDS011;11281;52.194;21.006;2023-02-02T19:16:04;5.65;;;3.92;;
22223;SDS011;11281;52.194;21.006;2023-02-02T19:20:46;6.80;;;3.80;;
22223;SDS011;11281;52.194;21.006;2023-02-02T19:25:09;6.65;;;4.00;;
22223;SDS011;11281;52.194;21.006;2023-02-02T19:29:34;6.55;;;3.70;;
22223;SDS011;11281;52.194;21.006;2023-02-02T19:33:58;4.18;;;3.15;;
22223;SDS011;11281;52.194;21.006;2023-02-02T19:38:20;5.25;;;3.50;;
22223;SDS011;11281;52.194;21.006;2023-02-02T19:42:57;7.82;;;4.15;;
22223;SDS011;11281;52.194;21.006;2023-02-02T19:47:45;3.92;;;3.50;;
22223;SDS011;11281;52.194;21.006;2023-02-02T19:52:11;5.15;;;3.00;;
22223;SDS011;11281;52.194;21.006;2023-02-02T19:56:42;7.65;;;4.70;;
22223;SDS011;11281;52.194;21.006;2023-02-02T20:01:09;6.85;;;3.83;;
22223;SDS011;11281;52.194;21.006;2023-02-02T20:05:40;6.35;;;4.20;;
22223;SDS011;11281;52.194;21.006;2023-02-02T20:10:26;5.30;;;3.22;;
22223;SDS011;11281;52.194;21.006;2023-02-02T20:14:53;5.15;;;3.78;;
22223;SDS011;11281;52.194;21.006;2023-02-02T20:19:18;7.72;;;4.18;;
22223;SDS011;11281;52.194;21.006;2023-02-02T20:23:43;7.07;;;4.13;;
22223;SDS011;11281;52.194;21.006;2023-02-02T20:28:07;8.65;;;4.15;;
22223;SDS011;11281;52.194;21.006;2023-02-02T20:33:01;4.75;;;3.13;;
22223;SDS011;11281;52.194;21.006;2023-02-02T20:37:40;6.50;;;4.53;;
22223;SDS011;11281;52.194;21.006;2023-02-02T20:42:02;10.90;;;4.15;;
22223;SDS011;11281;52.194;21.006;2023-02-02T20:46:24;5.45;;;3.95;;
22223;SDS011;11281;52.194;21.006;2023-02-02T20:50:46;6.28;;;3.53;;
22223;SDS011;11281;52.194;21.006;2023-02-02T20:55:08;10.20;;;4.20;;
22223;SDS011;11281;52.194;21.006;2023-02-02T20:59:31;5.68;;;4.05;;
22223;SDS011;11281;52.194;21.006;2023-02-02T21:03:52;4.45;;;3.15;;
22223;SDS011;11281;52.194;21.006;2023-02-02T21:08:14;7.95;;;4.65;;
22223;SDS011;11281;52.194;21.006;2023-02-02T21:12:36;8.85;;;5.55;;
22223;SDS011;11281;52.194;21.006;2023-02-02T21:16:57;8.27;;;4.35;;
22223;SDS011;11281;52.194;21.006;2023-02-02T21:21:19;12.18;;;5.57;;
22223;SDS011;11281;52.194;21.006;2023-02-02T21:25:42;7.50;;;4.88;;
22223;SDS011;11281;52.194;21.006;2023-02-02T21:30:04;12.30;;;6.70;;
22223;SDS011;11281;52.194;21.006;2023-02-02T21:34:26;9.73;;;4.47;;
22223;SDS011;11281;52.194;21.006;2023-02-02T21:38:48;7.88;;;5.07;;
22223;SDS011;11281;52.194;21.006;2023-02-02T21:43:12;10.55;;;5.38;;
22223;SDS011;11281;52.194;21.006;2023-02-02T21:47:39;5.03;;;3.45;;
22223;SDS011;11281;52.194;21.006;2023-02-02T21:52:15;7.72;;;4.00;;
22223;SDS011;11281;52.194;21.006;2023-02-02T21:56:38;6.00;;;4.05;;
22223;SDS011;11281;52.194;21.006;2023-02-02T22:01:43;8.30;;;4.68;;
22223;SDS011;11281;52.194;21.006;2023-02-02T22:10:45;5.22;;;4.13;;
22223;SDS011;11281;52.194;21.006;2023-02-02T22:15:13;13.23;;;6.45;;
22223;SDS011;11281;52.194;21.006;2023-02-02T22:19:38;9.23;;;5.40;;
22223;SDS011;11281;52.194;21.006;2023-02-02T22:24:00;5.75;;;4.13;;
22223;SDS011;11281;52.194;21.006;2023-02-02T22:28:23;10.27;;;5.40;;
22223;SDS011;11281;52.194;21.006;2023-02-02T22:32:57;6.72;;;4.65;;
22223;SDS011;11281;52.194;21.006;2023-02-02T22:37:18;9.90;;;4.68;;
22223;SDS011;11281;52.194;21.006;2023-02-02T22:41:40;9.88;;;4.22;;
22223;SDS011;11281;52.194;21.006;2023-02-02T22:46:02;8.38;;;4.13;;
22223;SDS011;11281;52.194;21.006;2023-02-02T22:50:25;8.65;;;4.57;;
22223;SDS011;11281;52.194;21.006;2023-02-02T22:54:49;4.97;;;3.50;;
22223;SDS011;11281;52.194;21.006;2023-02-02T22:59:10;14.77;;;8.38;;
22223;SDS011;11281;52.194;21.006;2023-02-02T23:03:32;13.52;;;6.30;;
22223;SDS011;11281;52.194;21.006;2023-02-02T23:07:54;17.58;;;7.32;;
22223;SDS011;11281;52.194;21.006;2023-02-02T23:12:16;14.77;;;5.90;;
22223;SDS011;11281;52.194;21.006;2023-02-02T23:16:37;16.48;;;7.05;;
22223;SDS011;11281;52.194;21.006;2023-02-02T23:20:59;4.43;;;3.10;;
22223;SDS011;11281;52.194;21.006;2023-02-02T23:25:21;11.73;;;4.90;;
22223;SDS011;11281;52.194;21.006;2023-02-02T23:29:43;6.82;;;3.92;;
22223;SDS011;11281;52.194;21.006;2023-02-02T23:34:04;11.02;;;5.03;;
22223;SDS011;11281;52.194;21.006;2023-02-02T23:38:26;12.98;;;5.13;;
22223;SDS011;11281;52.194;21.006;2023-02-02T23:42:48;13.13;;;6.00;;
22223;SDS011;11281;52.194;21.006;2023-02-02T23:47:10;13.15;;;6.82;;
22223;SDS011;11281;52.194;21.006;2023-02-02T23:51:31;8.45;;;4.45;;
22223;SDS011;11281;52.194;21.006;2023-02-02T23:55:53;5.57;;;3.97;;
